createdAt,value
2017-01-22T00:00:20.310Z,0
2017-01-22T00:00:50.353Z,0
2017-01-22T00:01:20.382Z,0
2017-01-22T00:01:50.415Z,0
2017-01-22T00:02:20.453Z,0
2017-01-22T00:02:50.497Z,0
2017-01-22T00:03:20.522Z,0
2017-01-22T00:03:50.560Z,0
2017-01-22T00:04:20.596Z,0
2017-01-22T00:04:50.628Z,0
2017-01-22T00:05:20.668Z,0
2017-01-22T00:05:50.700Z,0
2017-01-22T00:06:20.745Z,0
2017-01-22T00:06:50.776Z,0
2017-01-22T00:07:20.813Z,0
2017-01-22T00:07:50.844Z,0
2017-01-22T00:08:20.875Z,0
2017-01-22T00:08:50.908Z,0
2017-01-22T00:09:20.951Z,0
2017-01-22T00:09:50.995Z,0
2017-01-22T00:10:21.017Z,0
2017-01-22T00:10:51.053Z,0
2017-01-22T00:11:21.091Z,0
2017-01-22T00:11:51.122Z,0
2017-01-22T00:12:21.160Z,0
2017-01-22T00:12:51.200Z,0
2017-01-22T00:13:21.234Z,0
2017-01-22T00:13:51.268Z,0
2017-01-22T00:14:21.326Z,0
2017-01-22T00:14:51.342Z,0
2017-01-22T00:15:21.373Z,0
2017-01-22T00:15:51.407Z,0
2017-01-22T00:16:21.443Z,0
2017-01-22T00:16:51.482Z,0
2017-01-22T00:17:21.506Z,0
2017-01-22T00:17:51.546Z,0
2017-01-22T00:18:21.599Z,0
2017-01-22T00:18:51.619Z,0
2017-01-22T00:19:21.829Z,0
2017-01-22T00:19:51.682Z,0
2017-01-22T00:20:21.722Z,0
2017-01-22T00:20:51.760Z,0
2017-01-22T00:21:21.798Z,0
2017-01-22T00:21:51.833Z,0
2017-01-22T00:22:21.868Z,0
2017-01-22T00:22:51.896Z,0
2017-01-22T00:23:21.930Z,0
2017-01-22T00:23:51.980Z,0
2017-01-22T00:24:22.016Z,0
2017-01-22T00:24:52.115Z,0
2017-01-22T00:25:22.072Z,0
2017-01-22T00:25:52.105Z,0
2017-01-22T00:26:22.144Z,0
2017-01-22T00:26:52.363Z,0
2017-01-22T00:27:22.215Z,0
2017-01-22T00:27:52.248Z,0
2017-01-22T00:28:22.287Z,0
2017-01-22T00:28:52.324Z,0
2017-01-22T00:29:22.361Z,0
2017-01-22T00:29:52.414Z,0
2017-01-22T00:30:22.450Z,0
2017-01-22T00:30:52.472Z,0
2017-01-22T00:31:22.504Z,0
2017-01-22T00:31:52.532Z,0
2017-01-22T00:32:22.574Z,0
2017-01-22T00:32:52.611Z,0
2017-01-22T00:33:22.661Z,0
2017-01-22T00:33:52.679Z,0
2017-01-22T00:34:22.707Z,0
2017-01-22T00:34:52.742Z,0
2017-01-22T00:35:22.787Z,0
2017-01-22T00:35:52.825Z,0
2017-01-22T00:36:22.855Z,0
2017-01-22T00:36:52.881Z,0
2017-01-22T00:37:22.917Z,0
2017-01-22T00:37:52.957Z,0
2017-01-22T00:38:22.994Z,0
2017-01-22T00:38:53.029Z,0
2017-01-22T00:39:23.070Z,0
2017-01-22T00:39:53.099Z,0
2017-01-22T00:40:23.130Z,0
2017-01-22T00:40:53.166Z,0
2017-01-22T00:41:23.194Z,0
2017-01-22T00:41:53.232Z,0
2017-01-22T00:42:23.267Z,0
2017-01-22T00:42:53.496Z,0
2017-01-22T00:43:23.346Z,0
2017-01-22T00:43:53.370Z,0
2017-01-22T00:44:23.425Z,0
2017-01-22T00:44:53.446Z,0
2017-01-22T00:45:23.479Z,0
2017-01-22T00:45:53.522Z,0
2017-01-22T00:46:23.844Z,0
2017-01-22T00:46:53.767Z,0
2017-01-22T00:47:23.629Z,0
2017-01-22T00:47:53.656Z,0
2017-01-22T00:48:23.694Z,0
2017-01-22T00:48:53.725Z,0
2017-01-22T00:49:23.768Z,0
2017-01-22T00:49:53.795Z,0
2017-01-22T00:50:23.847Z,0
2017-01-22T00:50:53.877Z,0
2017-01-22T00:51:23.907Z,0
2017-01-22T00:51:53.940Z,0
2017-01-22T00:52:23.972Z,0
2017-01-22T00:52:54.005Z,0
2017-01-22T00:53:24.045Z,0
2017-01-22T00:53:54.077Z,0
2017-01-22T00:54:24.129Z,0
2017-01-22T00:54:54.161Z,0
2017-01-22T00:55:24.197Z,0
2017-01-22T00:55:54.226Z,0
2017-01-22T00:56:24.367Z,0
2017-01-22T00:56:54.298Z,0
2017-01-22T00:57:24.334Z,0
2017-01-22T00:57:54.362Z,0
2017-01-22T00:58:24.390Z,0
2017-01-22T00:58:54.438Z,0
2017-01-22T00:59:24.505Z,0
2017-01-22T00:59:54.502Z,0
2017-01-22T01:00:24.532Z,0
2017-01-22T01:00:54.563Z,0
2017-01-22T01:01:24.613Z,0
2017-01-22T01:01:54.650Z,0
2017-01-22T01:02:24.694Z,0
2017-01-22T01:06:49.276Z,0
2017-01-22T07:16:09.902Z,4
2017-01-22T07:16:39.934Z,4
2017-01-22T07:17:09.975Z,4
2017-01-22T07:17:39.996Z,4
2017-01-22T07:18:10.031Z,4
2017-01-22T07:18:53.739Z,8
2017-01-22T07:19:23.749Z,8
2017-01-22T07:19:53.781Z,8
2017-01-22T07:20:23.826Z,8
2017-01-22T07:20:53.972Z,8
2017-01-22T07:21:23.895Z,8
2017-01-22T07:21:53.919Z,8
2017-01-22T07:22:23.955Z,4
2017-01-22T07:22:53.992Z,4
2017-01-22T07:23:24.024Z,8
2017-01-22T07:23:54.062Z,8
2017-01-22T07:24:24.096Z,8
2017-01-22T07:24:54.125Z,4
2017-01-22T07:25:24.161Z,4
2017-01-22T07:25:54.199Z,8
2017-01-22T07:26:24.232Z,4
2017-01-22T07:26:54.341Z,4
2017-01-22T07:27:24.347Z,8
2017-01-22T07:27:54.418Z,8
2017-01-22T07:28:24.415Z,8
2017-01-22T07:28:54.407Z,8
2017-01-22T07:29:24.432Z,8
2017-01-22T07:29:54.471Z,8
2017-01-22T07:30:24.504Z,8
2017-01-22T07:30:54.543Z,8
2017-01-22T07:31:24.604Z,8
2017-01-22T07:31:54.608Z,8
2017-01-22T07:32:24.656Z,8
2017-01-22T07:32:54.671Z,8
2017-01-22T07:33:24.711Z,12
2017-01-22T07:33:54.780Z,8
2017-01-22T07:34:24.775Z,8
2017-01-22T07:34:54.810Z,12
2017-01-22T07:35:25.026Z,8
2017-01-22T07:35:54.881Z,8
2017-01-22T07:36:24.909Z,8
2017-01-22T07:36:54.947Z,8
2017-01-22T07:37:24.989Z,8
2017-01-22T07:37:55.032Z,8
2017-01-22T07:38:25.051Z,8
2017-01-22T07:38:55.088Z,8
2017-01-22T07:39:25.152Z,12
2017-01-22T07:39:55.162Z,12
2017-01-22T07:40:25.209Z,12
2017-01-22T07:40:55.934Z,12
2017-01-22T07:41:25.254Z,12
2017-01-22T07:41:55.293Z,12
2017-01-22T07:42:25.330Z,8
2017-01-22T07:42:55.407Z,12
2017-01-22T07:43:27.792Z,12
2017-01-22T07:43:56.628Z,12
2017-01-22T07:44:25.887Z,12
2017-01-22T07:44:59.298Z,12
2017-01-22T07:45:26.003Z,12
2017-01-22T07:45:56.371Z,12
2017-01-22T07:46:30.473Z,12
2017-01-22T07:46:55.638Z,16
2017-01-22T07:47:26.910Z,12
2017-01-22T07:47:55.704Z,16
2017-01-22T07:48:25.737Z,16
2017-01-22T07:49:04.395Z,16
2017-01-22T07:49:25.840Z,16
2017-01-22T07:49:57.187Z,16
2017-01-22T07:50:25.870Z,16
2017-01-22T07:50:56.178Z,16
2017-01-22T07:51:28.573Z,12
2017-01-22T07:51:55.970Z,16
2017-01-22T07:52:27.030Z,16
2017-01-22T07:52:56.198Z,16
2017-01-22T07:53:26.073Z,16
2017-01-22T07:53:56.115Z,16
2017-01-22T07:54:29.828Z,20
2017-01-22T07:54:56.178Z,20
2017-01-22T07:55:28.003Z,20
2017-01-22T07:55:56.252Z,20
2017-01-22T07:56:42.272Z,20
2017-01-22T07:57:19.875Z,16
2017-01-22T07:57:40.300Z,20
2017-01-22T07:58:01.470Z,20
2017-01-22T07:58:39.866Z,16
2017-01-22T08:00:22.900Z,20
2017-01-22T08:00:37.530Z,20
2017-01-22T08:01:19.208Z,20
2017-01-22T08:01:41.716Z,20
2017-01-22T08:02:11.386Z,20
2017-01-22T08:02:39.340Z,16
2017-01-22T08:03:45.468Z,20
2017-01-22T08:04:15.796Z,20
2017-01-22T08:04:44.462Z,20
2017-01-22T08:05:14.542Z,20
2017-01-22T11:11:31.568Z,160
2017-01-22T11:12:00.766Z,156
2017-01-22T11:12:30.991Z,156
2017-01-22T11:13:00.861Z,152
2017-01-22T11:13:30.914Z,148
2017-01-22T11:14:00.999Z,140
2017-01-22T11:14:31.166Z,136
2017-01-22T11:15:01.008Z,136
2017-01-22T11:15:31.211Z,128
2017-01-22T11:16:01.453Z,128
2017-01-22T11:16:31.247Z,128
2017-01-22T11:17:01.276Z,124
2017-01-22T11:17:31.412Z,120
2017-01-22T11:18:01.503Z,124
2017-01-22T11:18:31.293Z,128
2017-01-22T11:19:01.314Z,132
2017-01-22T11:19:31.612Z,132
2017-01-22T11:20:01.324Z,132
2017-01-22T11:20:31.489Z,128
2017-01-22T11:21:01.879Z,128
2017-01-22T11:21:31.849Z,124
2017-01-22T11:22:01.711Z,124
2017-01-22T11:22:31.537Z,132
2017-01-22T11:23:01.539Z,148
2017-01-22T11:23:31.842Z,152
2017-01-22T11:24:01.824Z,144
2017-01-22T11:24:31.666Z,144
2017-01-22T11:25:02.037Z,144
2017-01-22T11:25:32.210Z,148
2017-01-22T11:26:02.093Z,156
2017-01-22T11:26:31.933Z,172
2017-01-22T11:27:02.149Z,180
2017-01-22T11:27:31.945Z,180
2017-01-22T11:28:01.909Z,180
2017-01-22T11:28:31.927Z,188
2017-01-22T11:29:02.052Z,192
2017-01-22T11:29:32.361Z,196
2017-01-22T11:30:02.139Z,180
2017-01-22T11:30:32.073Z,172
2017-01-22T11:31:02.389Z,164
2017-01-22T11:31:32.487Z,164
2017-01-22T11:32:02.315Z,168
2017-01-22T11:32:32.472Z,184
2017-01-22T11:33:02.245Z,208
2017-01-22T11:33:32.259Z,220
2017-01-22T11:34:02.291Z,216
2017-01-22T11:34:32.388Z,212
2017-01-22T11:35:02.419Z,208
2017-01-22T11:35:32.608Z,208
2017-01-22T11:36:03.130Z,212
2017-01-22T11:36:32.474Z,208
2017-01-22T11:37:02.497Z,212
2017-01-22T11:37:32.754Z,224
2017-01-22T11:38:02.570Z,212
2017-01-22T11:38:32.790Z,228
2017-01-22T11:39:02.721Z,256
2017-01-22T11:39:32.708Z,260
2017-01-22T11:40:03.204Z,256
2017-01-22T11:40:32.955Z,276
2017-01-22T11:41:04.829Z,284
2017-01-22T11:41:32.845Z,288
2017-01-22T11:42:02.913Z,280
2017-01-22T11:42:32.992Z,272
2017-01-22T11:43:02.926Z,268
2017-01-22T11:43:33.045Z,252
2017-01-22T11:44:03.114Z,236
2017-01-22T11:44:33.042Z,228
2017-01-22T11:45:03.309Z,232
2017-01-22T11:45:33.322Z,240
2017-01-22T11:46:03.196Z,236
2017-01-22T11:46:33.168Z,232
2017-01-22T11:47:03.456Z,232
2017-01-22T11:47:33.430Z,228
2017-01-22T11:48:03.284Z,216
2017-01-22T11:48:33.304Z,204
2017-01-22T11:49:04.029Z,204
2017-01-22T11:49:33.916Z,212
2017-01-22T11:50:04.622Z,224
2017-01-22T11:50:34.156Z,236
2017-01-22T11:51:04.107Z,244
2017-01-22T11:51:34.999Z,248
2017-01-22T11:52:03.572Z,236
2017-01-22T11:52:33.786Z,232
2017-01-22T11:53:03.916Z,236
2017-01-22T11:53:33.707Z,256
2017-01-22T11:54:03.689Z,272
2017-01-22T11:54:33.914Z,288
2017-01-22T11:55:03.806Z,296
2017-01-22T11:55:33.858Z,296
2017-01-22T11:56:03.827Z,300
2017-01-22T11:56:34.155Z,288
2017-01-22T11:57:03.920Z,304
2017-01-22T11:57:33.936Z,296
2017-01-22T11:58:04.141Z,300
2017-01-22T11:58:34.011Z,308
2017-01-22T11:59:04.287Z,308
2017-01-22T11:59:34.146Z,308
2017-01-22T12:00:04.109Z,324
2017-01-22T12:00:34.360Z,296
2017-01-22T12:01:06.229Z,288
2017-01-22T12:01:38.002Z,284
2017-01-22T12:02:04.253Z,280
2017-01-22T12:02:34.288Z,296
2017-01-22T12:03:04.720Z,292
2017-01-22T12:03:34.469Z,260
2017-01-22T12:04:04.592Z,280
2017-01-22T12:04:34.550Z,272
2017-01-22T12:05:04.520Z,292
2017-01-22T12:05:34.498Z,292
2017-01-22T12:06:04.543Z,292
2017-01-22T12:06:34.559Z,288
2017-01-22T12:07:04.768Z,292
2017-01-22T12:07:34.644Z,308
2017-01-22T12:08:04.722Z,308
2017-01-22T12:08:34.700Z,312
2017-01-22T12:09:04.739Z,312
2017-01-22T12:09:34.854Z,312
2017-01-22T12:10:04.864Z,312
2017-01-22T12:10:34.846Z,312
2017-01-22T12:11:04.999Z,308
2017-01-22T12:11:35.105Z,300
2017-01-22T12:12:04.945Z,304
2017-01-22T12:12:35.084Z,304
2017-01-22T12:13:05.139Z,304
2017-01-22T12:13:35.107Z,320
2017-01-22T12:14:05.123Z,320
2017-01-22T12:14:35.143Z,320
2017-01-22T12:15:05.180Z,320
2017-01-22T12:15:35.219Z,316
2017-01-22T12:16:05.275Z,312
2017-01-22T12:16:35.275Z,316
2017-01-22T12:17:05.305Z,316
2017-01-22T12:17:35.331Z,320
2017-01-22T12:18:05.371Z,320
2017-01-22T12:18:35.433Z,324
2017-01-22T12:19:05.537Z,324
2017-01-22T12:19:35.507Z,328
2017-01-22T12:20:05.531Z,328
2017-01-22T12:20:35.544Z,332
2017-01-22T12:21:05.602Z,328
2017-01-22T12:21:41.233Z,328
2017-01-22T12:22:16.929Z,324
2017-01-22T12:22:46.687Z,320
2017-01-22T12:23:39.113Z,328
2017-01-22T12:24:05.787Z,332
2017-01-22T12:24:39.276Z,336
2017-01-22T12:25:09.816Z,336
2017-01-22T12:25:41.434Z,340
2017-01-22T12:26:09.565Z,336
2017-01-22T12:26:38.926Z,328
2017-01-22T12:27:21.446Z,324
2017-01-22T12:27:40.058Z,320
2017-01-22T12:28:09.711Z,320
2017-01-22T12:28:36.770Z,320
2017-01-22T12:29:14.284Z,320
2017-01-22T12:29:41.644Z,320
2017-01-22T12:30:06.811Z,324
2017-01-22T12:30:38.011Z,328
2017-01-22T12:31:07.498Z,328
2017-01-22T12:31:36.840Z,324
2017-01-22T12:32:06.350Z,328
2017-01-22T12:32:36.381Z,332
2017-01-22T12:33:06.418Z,332
2017-01-22T12:33:36.460Z,328
2017-01-22T12:34:06.494Z,324
2017-01-22T12:34:36.522Z,324
2017-01-22T12:35:06.600Z,324
2017-01-22T12:35:36.588Z,324
2017-01-22T12:36:06.630Z,328
2017-01-22T12:36:36.665Z,328
2017-01-22T12:37:06.724Z,328
2017-01-22T12:37:36.743Z,328
2017-01-22T12:38:06.773Z,324
2017-01-22T12:38:36.804Z,328
2017-01-22T12:39:06.841Z,328
2017-01-22T12:39:36.875Z,324
2017-01-22T12:40:06.942Z,320
2017-01-22T12:40:36.946Z,328
2017-01-22T12:41:07.011Z,328
2017-01-22T12:41:37.028Z,332
2017-01-22T12:42:07.049Z,328
2017-01-22T12:42:37.085Z,328
2017-01-22T12:43:07.126Z,324
2017-01-22T12:43:37.156Z,324
2017-01-22T12:44:07.201Z,320
2017-01-22T12:44:37.226Z,316
2017-01-22T12:45:07.263Z,316
2017-01-22T12:45:37.300Z,312
2017-01-22T12:46:07.347Z,316
2017-01-22T12:46:37.382Z,316
2017-01-22T12:47:07.432Z,316
2017-01-22T12:47:37.438Z,324
2017-01-22T12:48:07.463Z,324
2017-01-22T12:48:37.510Z,316
2017-01-22T12:49:07.542Z,312
2017-01-22T12:49:37.574Z,316
2017-01-22T12:50:07.615Z,308
2017-01-22T12:50:37.648Z,312
2017-01-22T12:51:07.680Z,312
2017-01-22T12:51:38.145Z,304
2017-01-22T12:52:08.180Z,300
2017-01-22T12:52:37.798Z,300
2017-01-22T12:53:07.826Z,300
2017-01-22T12:53:37.850Z,300
2017-01-22T12:54:07.894Z,292
2017-01-22T12:54:37.925Z,288
2017-01-22T12:55:07.986Z,292
2017-01-22T12:55:37.989Z,288
2017-01-22T12:56:08.040Z,288
2017-01-22T12:56:38.067Z,280
2017-01-22T12:57:08.099Z,284
2017-01-22T12:57:38.141Z,284
2017-01-22T12:58:08.207Z,280
2017-01-22T12:58:38.247Z,280
2017-01-22T12:59:08.256Z,276
2017-01-22T12:59:43.745Z,276
2017-01-22T13:00:08.313Z,276
2017-01-22T13:00:38.349Z,276
2017-01-22T13:01:11.028Z,284
2017-01-22T13:01:41.318Z,288
2017-01-22T13:02:08.463Z,284
2017-01-22T13:02:38.493Z,284
2017-01-22T13:03:08.535Z,284
2017-01-22T13:03:38.570Z,284
2017-01-22T13:04:08.592Z,280
2017-01-22T13:04:38.628Z,280
2017-01-22T13:05:08.666Z,276
2017-01-22T13:05:38.694Z,272
2017-01-22T13:06:08.731Z,272
2017-01-22T13:06:38.767Z,272
2017-01-22T13:07:19.128Z,268
2017-01-22T13:07:39.454Z,276
2017-01-22T13:08:10.204Z,280
2017-01-22T13:08:38.973Z,276
2017-01-22T13:09:10.018Z,276
2017-01-22T13:09:40.952Z,276
2017-01-22T13:10:09.014Z,276
2017-01-22T13:10:41.186Z,276
2017-01-22T13:11:12.571Z,272
2017-01-22T13:12:18.040Z,264
2017-01-22T13:12:39.184Z,264
2017-01-22T13:13:09.217Z,264
2017-01-22T13:13:39.261Z,260
2017-01-22T13:14:09.291Z,260
2017-01-22T13:14:39.348Z,260
2017-01-22T13:15:09.423Z,260
2017-01-22T13:15:39.466Z,256
2017-01-22T13:16:09.428Z,260
2017-01-22T13:16:39.466Z,260
2017-01-22T13:17:09.536Z,256
2017-01-22T13:17:39.531Z,256
2017-01-22T13:18:09.568Z,256
2017-01-22T13:18:39.609Z,256
2017-01-22T13:19:09.660Z,256
2017-01-22T13:19:39.694Z,252
2017-01-22T13:20:09.751Z,256
2017-01-22T13:20:39.747Z,252
2017-01-22T13:21:09.791Z,248
2017-01-22T13:21:39.837Z,248
2017-01-22T13:22:09.858Z,248
2017-01-22T13:22:40.936Z,248
2017-01-22T13:23:10.024Z,248
2017-01-22T13:23:40.148Z,248
2017-01-22T13:24:09.992Z,248
2017-01-22T13:24:40.027Z,248
2017-01-22T13:25:10.072Z,244
2017-01-22T13:25:41.060Z,244
2017-01-22T13:26:10.145Z,244
2017-01-22T13:26:40.265Z,244
2017-01-22T13:27:11.950Z,240
2017-01-22T13:27:40.937Z,232
2017-01-22T13:28:10.714Z,228
2017-01-22T13:28:41.124Z,228
2017-01-22T13:29:10.468Z,228
2017-01-22T13:29:40.380Z,224
2017-01-22T13:30:11.261Z,220
2017-01-22T13:30:40.665Z,224
2017-01-22T13:31:10.517Z,220
2017-01-22T13:31:40.559Z,220
2017-01-22T13:32:10.612Z,220
2017-01-22T13:32:42.029Z,224
2017-01-22T13:33:10.836Z,220
2017-01-22T13:33:40.883Z,212
2017-01-22T13:34:10.848Z,216
2017-01-22T13:34:40.954Z,212
2017-01-22T13:35:12.937Z,212
2017-01-22T13:35:43.188Z,212
2017-01-22T13:36:11.680Z,212
2017-01-22T13:36:41.087Z,208
2017-01-22T13:37:11.778Z,204
2017-01-22T13:37:40.942Z,204
2017-01-22T13:38:10.970Z,200
2017-01-22T13:38:41.440Z,196
2017-01-22T13:39:11.694Z,188
2017-01-22T13:39:41.150Z,180
2017-01-22T13:40:11.413Z,164
2017-01-22T13:40:41.344Z,156
2017-01-22T13:41:11.542Z,148
2017-01-22T13:41:41.469Z,140
2017-01-22T13:42:11.528Z,136
2017-01-22T13:42:41.700Z,128
2017-01-22T13:43:11.402Z,124
2017-01-22T13:43:41.490Z,120
2017-01-22T13:44:12.218Z,120
2017-01-22T13:44:42.087Z,120
2017-01-22T13:45:12.557Z,120
2017-01-22T13:45:41.659Z,120
2017-01-22T13:46:11.628Z,120
2017-01-22T13:46:41.917Z,120
2017-01-22T13:47:12.166Z,120
2017-01-22T13:47:41.639Z,120
2017-01-22T13:48:13.671Z,116
2017-01-22T13:48:41.702Z,116
2017-01-22T13:49:12.204Z,112
2017-01-22T13:49:41.919Z,112
2017-01-22T13:50:12.028Z,112
2017-01-22T13:50:42.311Z,112
2017-01-22T13:51:12.187Z,112
2017-01-22T13:51:43.022Z,108
2017-01-22T13:52:12.268Z,108
2017-01-22T13:52:42.151Z,108
2017-01-22T13:53:12.176Z,104
2017-01-22T13:53:42.336Z,100
2017-01-22T13:54:12.198Z,100
2017-01-22T13:54:42.132Z,100
2017-01-22T13:55:12.190Z,100
2017-01-22T13:55:42.532Z,100
2017-01-22T13:56:12.443Z,100
2017-01-22T13:56:42.340Z,96
2017-01-22T13:57:12.731Z,96
2017-01-22T13:57:42.432Z,96
2017-01-22T13:58:12.375Z,96
2017-01-22T13:58:42.400Z,100
2017-01-22T13:59:12.552Z,96
2017-01-22T13:59:42.719Z,100
2017-01-22T14:00:13.340Z,100
2017-01-22T14:00:42.550Z,100
2017-01-22T14:01:12.576Z,100
2017-01-22T14:01:42.972Z,100
2017-01-22T14:02:12.744Z,100
2017-01-22T14:02:44.097Z,104
2017-01-22T14:03:12.808Z,100
2017-01-22T14:03:42.793Z,100
2017-01-22T14:04:13.613Z,92
2017-01-22T14:04:43.147Z,96
2017-01-22T14:05:12.857Z,88
2017-01-22T14:05:43.128Z,92
2017-01-22T14:06:13.754Z,92
2017-01-22T14:06:43.207Z,92
2017-01-22T14:07:14.550Z,96
2017-01-22T14:07:43.039Z,100
2017-01-22T14:08:13.063Z,104
2017-01-22T14:08:43.359Z,104
2017-01-22T14:09:13.944Z,104
2017-01-22T14:09:44.266Z,100
2017-01-22T14:10:13.207Z,100
2017-01-22T14:10:43.447Z,96
2017-01-22T14:11:13.287Z,92
2017-01-22T14:11:43.518Z,92
2017-01-22T14:12:13.345Z,92
2017-01-22T14:12:44.564Z,92
2017-01-22T14:13:13.424Z,92
2017-01-22T14:13:43.459Z,88
2017-01-22T14:14:13.574Z,88
2017-01-22T14:14:43.563Z,84
2017-01-22T14:15:15.058Z,84
2017-01-22T14:15:43.751Z,76
2017-01-22T14:16:13.626Z,76
2017-01-22T14:16:43.673Z,76
2017-01-22T14:17:14.376Z,76
2017-01-22T14:17:44.496Z,76
2017-01-22T14:18:13.826Z,76
2017-01-22T14:18:44.483Z,76
2017-01-22T14:19:13.988Z,80
2017-01-22T14:19:43.889Z,84
2017-01-22T14:20:14.125Z,84
2017-01-22T14:20:44.959Z,84
2017-01-22T14:21:13.980Z,80
2017-01-22T14:21:45.149Z,84
2017-01-22T14:22:14.962Z,84
2017-01-22T14:22:44.331Z,84
2017-01-22T14:23:14.124Z,84
2017-01-22T14:23:44.148Z,80
2017-01-22T14:24:14.186Z,80
2017-01-22T14:24:44.223Z,80
2017-01-22T14:25:14.269Z,84
2017-01-22T14:25:44.575Z,80
2017-01-22T14:26:14.545Z,80
2017-01-22T14:26:45.771Z,80
2017-01-22T14:27:15.439Z,76
2017-01-22T14:27:44.588Z,80
2017-01-22T14:28:16.730Z,76
2017-01-22T14:28:45.845Z,76
2017-01-22T14:29:16.152Z,76
2017-01-22T14:29:44.598Z,76
2017-01-22T14:30:14.620Z,72
2017-01-22T14:30:45.658Z,68
2017-01-22T14:31:14.892Z,68
2017-01-22T14:31:44.850Z,72
2017-01-22T14:32:14.738Z,68
2017-01-22T14:32:46.149Z,68
2017-01-22T14:33:15.738Z,68
2017-01-22T14:33:45.584Z,68
2017-01-22T14:34:14.893Z,64
2017-01-22T14:34:45.235Z,64
2017-01-22T14:35:15.869Z,60
2017-01-22T14:35:45.992Z,60
2017-01-22T14:36:15.633Z,60
2017-01-22T14:36:45.377Z,60
2017-01-22T14:37:15.096Z,56
2017-01-22T14:37:45.251Z,56
2017-01-22T14:38:15.523Z,56
2017-01-22T14:38:46.234Z,60
2017-01-22T14:39:16.990Z,56
2017-01-22T14:39:45.791Z,60
2017-01-22T14:40:15.464Z,60
2017-01-22T14:40:45.471Z,56
2017-01-22T14:41:15.466Z,56
2017-01-22T14:41:45.981Z,52
2017-01-22T14:42:15.532Z,56
2017-01-22T14:42:45.567Z,56
2017-01-22T14:43:16.326Z,52
2017-01-22T14:43:45.695Z,52
2017-01-22T14:44:16.229Z,56
2017-01-22T14:44:45.800Z,52
2017-01-22T14:45:15.881Z,52
2017-01-22T14:45:46.559Z,48
2017-01-22T14:46:16.742Z,48
2017-01-22T14:46:45.788Z,48
2017-01-22T14:47:16.379Z,48
2017-01-22T14:47:46.960Z,48
2017-01-22T14:48:17.237Z,44
2017-01-22T14:48:46.062Z,48
2017-01-22T14:49:16.144Z,44
2017-01-22T14:49:46.146Z,48
2017-01-22T14:50:16.066Z,44
2017-01-22T14:50:46.539Z,44
2017-01-22T14:51:16.062Z,44
2017-01-22T14:51:46.600Z,44
2017-01-22T14:52:16.225Z,44
2017-01-22T14:52:46.911Z,44
2017-01-22T14:53:16.504Z,40
2017-01-22T14:53:46.874Z,40
2017-01-22T14:54:16.486Z,40
2017-01-22T14:54:46.790Z,40
2017-01-22T14:55:16.753Z,40
2017-01-22T14:55:46.514Z,40
2017-01-22T14:56:16.527Z,36
2017-01-22T14:56:46.586Z,40
2017-01-22T14:57:17.051Z,36
2017-01-22T14:57:46.759Z,40
2017-01-22T14:59:37.161Z,32
2017-01-22T14:59:47.282Z,36
2017-01-22T15:00:18.331Z,36
2017-01-22T15:00:47.000Z,32
2017-01-22T15:01:17.432Z,32
2017-01-22T15:01:47.770Z,32
2017-01-22T15:02:17.122Z,32
2017-01-22T15:02:47.547Z,32
2017-01-22T15:03:16.946Z,32
2017-01-22T15:03:47.515Z,28
2017-01-22T15:04:17.318Z,32
2017-01-22T15:04:47.030Z,28
2017-01-22T15:05:17.431Z,28
2017-01-22T15:05:47.634Z,28
2017-01-22T15:06:17.505Z,28
2017-01-22T15:06:47.489Z,28
2017-01-22T15:07:17.732Z,28
2017-01-22T15:07:47.432Z,28
2017-01-22T15:08:17.252Z,28
2017-01-22T15:08:47.281Z,24
2017-01-22T15:09:17.315Z,24
2017-01-22T15:09:47.634Z,28
2017-01-22T15:10:17.391Z,24
2017-01-22T15:10:47.419Z,24
2017-01-22T15:11:17.790Z,24
2017-01-22T15:11:48.817Z,24
2017-01-22T15:12:17.528Z,24
2017-01-22T15:12:47.553Z,20
2017-01-22T15:13:18.562Z,24
2017-01-22T15:13:47.690Z,20
2017-01-22T15:14:17.656Z,20
2017-01-22T15:14:47.690Z,24
2017-01-22T15:15:18.499Z,20
2017-01-22T15:15:47.763Z,20
2017-01-22T15:16:17.810Z,20
2017-01-22T15:16:48.600Z,20
2017-01-22T15:17:18.902Z,20
2017-01-22T15:17:47.906Z,20
2017-01-22T15:18:17.938Z,16
2017-01-22T15:18:47.980Z,20
2017-01-22T15:19:18.879Z,16
2017-01-22T15:19:48.945Z,16
2017-01-22T15:20:18.077Z,16
2017-01-22T15:20:48.109Z,20
2017-01-22T15:21:18.156Z,16
2017-01-22T15:21:48.196Z,16
2017-01-22T15:22:18.637Z,16
2017-01-22T15:22:48.886Z,16
2017-01-22T15:23:18.287Z,16
2017-01-22T15:23:48.333Z,16
2017-01-22T15:24:18.358Z,12
2017-01-22T15:24:49.188Z,16
2017-01-22T15:25:18.423Z,16
2017-01-22T15:25:48.464Z,12
2017-01-22T15:26:18.494Z,12
2017-01-22T15:26:49.604Z,16
2017-01-22T15:27:19.176Z,12
2017-01-22T15:27:48.598Z,12
2017-01-22T15:28:18.628Z,12
2017-01-22T15:28:49.099Z,12
2017-01-22T15:29:19.539Z,12
2017-01-22T15:29:49.470Z,12
2017-01-22T15:30:18.769Z,12
2017-01-22T15:30:48.805Z,12
2017-01-22T15:31:19.346Z,8
2017-01-22T15:31:48.923Z,12
2017-01-22T15:32:19.006Z,12
2017-01-22T15:32:48.940Z,8
2017-01-22T15:33:18.982Z,8
2017-01-22T15:33:49.928Z,8
2017-01-22T15:34:19.052Z,8
2017-01-22T15:34:49.116Z,12
2017-01-22T15:35:19.112Z,8
2017-01-22T15:35:49.560Z,8
2017-01-22T15:36:20.265Z,8
2017-01-22T15:36:50.243Z,8
2017-01-22T15:37:19.256Z,8
2017-01-22T15:37:49.321Z,8
2017-01-22T15:38:20.115Z,8
2017-01-22T15:38:50.499Z,8
2017-01-22T15:39:19.404Z,4
2017-01-22T15:39:49.431Z,4
2017-01-22T15:40:20.174Z,8
2017-01-22T15:40:49.911Z,8
2017-01-22T15:41:19.536Z,8
2017-01-22T15:41:49.725Z,4
2017-01-22T15:42:20.410Z,4
2017-01-22T15:42:50.464Z,4
2017-01-22T15:43:19.762Z,4
2017-01-22T15:43:49.703Z,4
2017-01-22T15:44:19.746Z,8
2017-01-22T15:44:49.779Z,8
2017-01-22T15:45:20.871Z,4
2017-01-22T15:45:49.851Z,4
2017-01-22T15:46:19.884Z,4
2017-01-22T15:46:50.022Z,4
2017-01-22T15:47:21.028Z,4
2017-01-22T15:47:50.226Z,4
2017-01-22T15:48:20.021Z,4
2017-01-22T15:48:50.817Z,4
2017-01-22T15:49:20.097Z,4
2017-01-22T15:49:50.155Z,4
2017-01-22T15:50:20.151Z,4
2017-01-22T15:50:50.697Z,4
2017-01-22T15:51:20.224Z,4
2017-01-22T15:51:50.268Z,4
2017-01-22T15:52:20.292Z,4
2017-01-22T15:52:50.374Z,0
2017-01-22T15:53:20.365Z,0
2017-01-22T15:53:50.416Z,0
2017-01-22T15:54:20.456Z,0
2017-01-22T15:54:50.468Z,0
2017-01-22T15:55:22.047Z,0
2017-01-22T15:55:50.535Z,4
2017-01-22T15:56:20.678Z,4
2017-01-22T15:56:50.614Z,4
2017-01-22T15:57:20.660Z,4
2017-01-22T15:57:50.678Z,4
2017-01-22T15:58:20.719Z,4
2017-01-22T15:58:54.951Z,0
2017-01-22T15:59:20.778Z,0
2017-01-22T15:59:50.811Z,0
2017-01-22T16:00:20.856Z,0
2017-01-22T16:00:50.892Z,0
2017-01-22T16:01:20.923Z,0
2017-01-22T16:01:50.955Z,0
2017-01-22T16:02:20.992Z,0
2017-01-22T16:02:51.026Z,0
2017-01-22T16:03:21.057Z,0
2017-01-22T16:03:51.117Z,0
2017-01-22T16:04:21.123Z,0
2017-01-22T16:04:51.168Z,0
2017-01-22T16:05:21.208Z,0
2017-01-22T16:05:51.238Z,0
2017-01-22T16:06:21.262Z,0
2017-01-22T16:06:51.301Z,0
2017-01-22T16:07:21.344Z,0
2017-01-22T16:07:51.403Z,0
2017-01-22T16:08:21.408Z,0
2017-01-22T16:08:51.441Z,0
2017-01-22T16:09:21.475Z,0
2017-01-22T16:09:51.506Z,0
2017-01-22T16:10:21.545Z,0
2017-01-22T16:10:51.575Z,0
2017-01-22T16:11:21.618Z,0
2017-01-22T16:11:51.653Z,0
2017-01-22T16:12:21.681Z,0
2017-01-22T16:12:51.722Z,0
2017-01-22T16:13:21.764Z,0
2017-01-22T16:13:51.787Z,0
2017-01-22T16:14:21.826Z,0
2017-01-22T16:14:51.864Z,0
2017-01-22T16:15:22.142Z,0
2017-01-22T16:15:51.927Z,0
2017-01-22T16:16:21.960Z,0
2017-01-22T16:16:51.997Z,0
2017-01-22T16:17:22.107Z,0
2017-01-22T16:17:52.069Z,0
2017-01-22T16:18:22.101Z,0
2017-01-22T16:18:52.330Z,0
2017-01-22T16:19:22.164Z,0
2017-01-22T16:19:52.198Z,0
2017-01-22T16:20:22.249Z,0
2017-01-22T16:20:52.273Z,0
2017-01-22T16:21:22.304Z,0
2017-01-22T16:21:52.338Z,0
2017-01-22T16:22:22.373Z,0
2017-01-22T16:22:52.411Z,0
2017-01-22T16:23:22.450Z,0
2017-01-22T16:23:52.481Z,0
2017-01-22T16:24:22.508Z,0
2017-01-22T16:24:52.552Z,0
2017-01-22T16:25:22.619Z,0
2017-01-22T16:25:52.615Z,0
2017-01-22T16:26:22.661Z,0
2017-01-22T16:26:52.759Z,0
2017-01-22T16:27:22.736Z,0
2017-01-22T16:27:52.756Z,0
2017-01-22T16:28:22.798Z,0
2017-01-22T16:28:52.855Z,0
2017-01-22T16:29:22.861Z,0
2017-01-22T16:29:52.915Z,0